TAF EGKK
EGKK 280448Z 2806/2912 33012KT 9999 FEW025 PROB30 TEMPO 2900/2911 BKN008=
METAR EGKK
WC EGKK
WS EGKK
WV EGKK